This is the latest recevied weather packets stored in our database for station/object EA1ZE. If no packets are shown the sender has not sent any weather packets the latest 10 day(s).
| Time | Temp. | Humidity | Pressure | Rain* | Wind** | Luminosity | Snow |
|---|---|---|---|---|---|---|---|
| 1787835633 | 17.22° C | 68% | 1011.4 hPa | 0 mm | - | - | - |
| 1787834720 | 17.78° C | 62% | 1010.7 hPa | 0 mm | - | - | - |
| 1787833824 | 18.89° C | 58% | 1010.2 hPa | 0 mm | - | - | - |
| 1787832929 | 19.44° C | 50% | 1009.7 hPa | 0 mm | - | - | - |
| 1787832017 | 20° C | 48% | 1009.6 hPa | 0 mm | - | - | - |
| 1787831120 | 20° C | 47% | 1009.5 hPa | 0 mm | - | - | - |
| 1787830222 | 19.44° C | 48% | 1009.8 hPa | 0 mm | - | - | - |
| 1787829372 | 18.89° C | 52% | 1009.7 hPa | 0 mm | - | - | - |
| 1787828410 | 18.89° C | 52% | 1009.9 hPa | 0 mm | - | - | - |
| 1787827506 | 18.33° C | 58% | 1009.9 hPa | 0 mm | - | - | - |
| 1787826613 | 18.33° C | 58% | 1010 hPa | 0 mm | - | - | - |
| 1787825707 | - | - | 1010 hPa | 0 mm | - | - | - |
| 1787824860 | - | - | 1010 hPa | 0 mm | - | - | - |
| 1787823974 | 17.78° C | 66% | 1010.1 hPa | 0 mm | - | - | - |
| 1787823057 | 17.22° C | 70% | 1010 hPa | 0 mm | - | - | - |
| 1787822157 | 16.67° C | 78% | 1010 hPa | 0 mm | - | - | - |
| 1787821247 | 15.56° C | 87% | 1010 hPa | 0 mm | - | - | - |
| 1787820347 | 15.56° C | 88% | 1010.1 hPa | 0 mm | - | - | - |
| 1787819462 | 15° C | 88% | 1009.9 hPa | 0 mm | - | - | - |
| 1787818546 | 15° C | 89% | 1009.8 hPa | 0 mm | - | - | - |
| 1787817646 | 15° C | 90% | 1009.7 hPa | 0 mm | - | - | - |
| 1787816746 | 15° C | 90% | 1009.6 hPa | 0 mm | - | - | - |
| 1787815848 | 15° C | 90% | 1009.5 hPa | 0 mm | - | - | - |
| 1787814945 | 14.44° C | 91% | 1009.8 hPa | 0 mm | - | - | - |
| 1787814044 | 14.44° C | 91% | 1009.5 hPa | 0 mm | - | - | - |
* Rain latest hour (hover to see other rain measurements)
** Current wind speed in m/s (hover to see current wind gust speed)